Time;durP1;ratioP1;P1;durP2;ratioP2;P2;SDS_P1;SDS_P2;PMS_P1;PMS_P2;Temp;Humidity;BMP_temperature;BMP_pressure;BME280_temperature;BME280_humidity;BME280_pressure;Samples;Min_cycle;Max_cycle;Signal;HPM_P1;HPM_P2
2022/07/04 00:08:14;;;;;;;20.00;3.50;;;;;;;20.16;nan;101623.16;6042013;23;20878;-93
2022/07/04 00:19:16;;;;;;;23.73;3.27;;;;;;;20.21;nan;101630.75;6157522;23;20695;-93
2022/07/04 00:22:20;;;;;;;16.40;3.20;;;;;;;20.20;nan;101623.53;6156549;23;20419;-93
2022/07/04 00:24:50;;;;;;;22.20;3.30;;;;;;;20.20;nan;101629.09;6131933;23;20408;-92
2022/07/04 00:27:38;;;;;;;21.40;3.80;;;;;;;20.19;nan;101619.06;6108017;23;20417;-93
2022/07/04 00:30:33;;;;;;;15.60;3.40;;;;;;;20.16;nan;101616.75;6131888;23;20409;-92
2022/07/04 00:33:36;;;;;;;25.20;4.50;;;;;;;20.17;nan;101632.34;6155882;23;20470;-92
2022/07/04 00:36:14;;;;;;;13.13;2.90;;;;;;;20.00;nan;101605.25;6132778;23;20421;-92
2022/07/04 00:39:56;;;;;;;;;;;;;;;;;;;;;
2022/07/04 00:45:51;;;;;;;18.60;3.20;;;;;;;20.07;nan;101601.50;6157453;23;20906;-92
2022/07/04 00:59:35;;;;;;;23.73;3.83;;;;;;;20.10;nan;101603.81;6067919;23;20386;-93
2022/07/04 01:02:46;;;;;;;20.63;3.33;;;;;;;20.26;nan;101625.34;6023596;23;20419;-93
2022/07/04 01:05:48;;;;;;;14.03;3.10;;;;;;;20.17;nan;101619.31;6027006;23;20408;-93
2022/07/04 01:12:25;;;;;;;14.00;3.10;;;;;;;20.16;nan;101597.31;6040030;23;20420;-94
2022/07/04 01:21:54;;;;;;;15.57;3.33;;;;;;;19.98;nan;101570.47;6033903;23;20371;-92
2022/07/04 01:24:24;;;;;;;17.53;3.60;;;;;;;20.11;nan;101594.41;5972212;23;20420;-93
2022/07/04 01:26:51;;;;;;;15.43;2.97;;;;;;;20.13;nan;101595.03;6078710;23;20487;-93
2022/07/04 01:33:07;;;;;;;13.77;2.83;;;;;;;20.06;nan;101592.34;6156505;23;20405;-89
2022/07/04 01:39:22;;;;;;;13.27;3.10;;;;;;;20.12;nan;101596.09;6156179;23;20386;-88
2022/07/04 01:45:37;;;;;;;13.20;3.10;;;;;;;20.09;nan;101591.03;6156751;23;20354;-90
2022/07/04 01:48:09;;;;;;;15.87;3.50;;;;;;;20.09;nan;101582.69;6107614;23;20464;-90
2022/07/04 01:50:37;;;;;;;12.83;3.23;;;;;;;20.08;nan;101578.22;6084871;23;20400;-89
2022/07/04 01:53:04;;;;;;;19.10;3.37;;;;;;;20.13;nan;101579.22;6107854;23;20481;-89
2022/07/04 01:55:32;;;;;;;19.23;3.40;;;;;;;20.11;nan;101569.44;6107485;23;20459;-90
2022/07/04 01:58:03;;;;;;;12.30;3.50;;;;;;;20.10;nan;101567.72;6084258;23;20386;-89
2022/07/04 02:03:17;;;;;;;9.57;3.33;;;;;;;20.05;nan;101568.44;6115163;23;20469;-89
2022/07/04 02:05:45;;;;;;;15.90;3.00;;;;;;;20.01;nan;101562.50;6108058;23;20401;-89
2022/07/04 02:08:15;;;;;;;25.67;3.90;;;;;;;19.99;nan;101564.69;6084222;23;20405;-90
2022/07/04 02:10:44;;;;;;;16.03;3.77;;;;;;;19.99;nan;101570.25;6155075;23;20433;-90
2022/07/04 02:13:26;;;;;;;18.50;3.10;;;;;;;19.99;nan;101561.91;6112095;23;20393;-90
2022/07/04 02:16:00;;;;;;;15.20;3.13;;;;;;;19.97;nan;101560.47;6137426;23;20436;-90
2022/07/04 02:18:29;;;;;;;15.30;3.43;;;;;;;19.96;nan;101565.16;6110517;23;20536;-90
2022/07/04 02:21:05;;;;;;;25.77;3.07;;;;;;;19.92;nan;101558.38;6134453;23;20393;-91
2022/07/04 02:23:34;;;;;;;15.00;3.57;;;;;;;19.95;nan;101551.53;6109247;23;20732;-91
2022/07/04 02:26:02;;;;;;;12.27;2.60;;;;;;;19.97;nan;101564.09;6085678;23;20460;-91
2022/07/04 02:28:31;;;;;;;21.33;3.73;;;;;;;19.91;nan;101556.69;6110761;23;20472;-90
2022/07/04 02:31:07;;;;;;;16.43;2.70;;;;;;;19.94;nan;101553.44;6109052;23;20420;-90
2022/07/04 02:33:36;;;;;;;19.83;4.10;;;;;;;19.95;nan;101554.28;6158013;23;20468;-90
2022/07/04 02:36:10;;;;;;;12.27;2.87;;;;;;;20.00;nan;101552.50;5970816;23;20964;-90
2022/07/04 02:38:39;;;;;;;14.40;3.10;;;;;;;19.93;nan;101553.69;5970507;23;20552;-90
2022/07/04 02:41:08;;;;;;;21.83;3.37;;;;;;;19.95;nan;101557.91;5993395;23;20416;-90
2022/07/04 02:43:36;;;;;;;23.20;3.97;;;;;;;19.90;nan;101559.69;5992907;23;20416;-90
2022/07/04 02:46:04;;;;;;;15.47;3.20;;;;;;;19.85;nan;101548.44;5969789;23;20401;-90
2022/07/04 02:48:31;;;;;;;10.83;2.60;;;;;;;19.79;nan;101547.50;5970197;23;20412;-90
2022/07/04 02:51:09;;;;;;;15.13;3.27;;;;;;;19.80;nan;101553.88;5994157;23;20405;-90
2022/07/04 02:53:39;;;;;;;15.00;3.37;;;;;;;19.82;nan;101555.31;5993322;23;20467;-90
2022/07/04 02:56:09;;;;;;;14.20;3.73;;;;;;;19.86;nan;101551.00;6038988;23;20527;-89
2022/07/04 02:58:38;;;;;;;14.20;2.83;;;;;;;19.86;nan;101556.53;5969840;23;20400;-89
2022/07/04 03:01:14;;;;;;;12.33;3.63;;;;;;;19.85;nan;101557.63;6046873;23;20411;-90
2022/07/04 03:03:47;;;;;;;16.40;2.90;;;;;;;19.83;nan;101562.56;6108743;23;20845;-90
2022/07/04 03:06:18;;;;;;;22.13;3.93;;;;;;;19.85;nan;101563.16;6156509;23;20393;-90
2022/07/04 03:08:49;;;;;;;13.20;2.83;;;;;;;19.88;nan;101570.19;6108133;23;20722;-90
2022/07/04 03:11:25;;;;;;;20.73;3.50;;;;;;;19.86;nan;101564.88;6156293;23;20508;-90
2022/07/04 03:13:54;;;;;;;8.53;2.90;;;;;;;19.88;nan;101561.88;6132831;23;20436;-90
2022/07/04 03:16:22;;;;;;;24.63;3.33;;;;;;;19.89;nan;101569.94;6108159;23;20913;-90
2022/07/04 03:18:52;;;;;;;15.40;2.73;;;;;;;19.86;nan;101562.09;6083808;23;20463;-91
2022/07/04 03:21:21;;;;;;;16.80;3.67;;;;;;;19.91;nan;101570.56;6107521;23;20413;-90
2022/07/04 03:23:59;;;;;;;13.93;2.50;;;;;;;19.80;nan;101549.19;6108174;23;20758;-90
2022/07/04 03:26:30;;;;;;;10.17;2.70;;;;;;;19.90;nan;101566.09;6111909;23;20444;-90
2022/07/04 03:29:06;;;;;;;13.60;2.83;;;;;;;19.86;nan;101558.47;6108335;23;20409;-90
2022/07/04 03:31:35;;;;;;;12.33;2.50;;;;;;;19.84;nan;101567.03;6108066;23;20495;-90
2022/07/04 03:34:03;;;;;;;13.33;2.93;;;;;;;19.86;nan;101561.25;6084147;23;20411;-89
2022/07/04 03:36:31;;;;;;;14.57;2.90;;;;;;;19.86;nan;101559.31;6108099;23;20433;-90
2022/07/04 03:38:58;;;;;;;13.17;3.13;;;;;;;19.85;nan;101565.94;6107303;23;20416;-90
2022/07/04 03:41:39;;;;;;;12.80;3.20;;;;;;;19.84;nan;101575.34;6084204;23;20382;-90
2022/07/04 03:44:15;;;;;;;20.27;3.10;;;;;;;19.85;nan;101571.50;6132218;23;20385;-89
2022/07/04 03:46:44;;;;;;;16.23;3.00;;;;;;;19.90;nan;101577.19;6108249;23;20884;-90
2022/07/04 03:49:17;;;;;;;15.03;2.97;;;;;;;19.88;nan;101570.19;6107389;23;20412;-90
2022/07/04 03:51:46;;;;;;;16.37;2.60;;;;;;;19.86;nan;101572.34;6108179;23;20723;-89
2022/07/04 03:54:14;;;;;;;11.80;2.70;;;;;;;19.88;nan;101575.72;6108077;23;20393;-89
2022/07/04 03:56:45;;;;;;;11.33;3.10;;;;;;;19.90;nan;101579.97;6107900;23;20444;-89
2022/07/04 03:59:13;;;;;;;9.17;2.20;;;;;;;19.89;nan;101583.81;6084548;23;21053;-89
2022/07/04 04:01:47;;;;;;;16.40;2.67;;;;;;;19.89;nan;101575.50;6107841;23;20381;-89
2022/07/04 04:07:00;;;;;;;11.20;2.63;;;;;;;19.88;nan;101573.81;6115531;23;20496;-89
2022/07/04 04:09:30;;;;;;;11.97;2.70;;;;;;;19.95;nan;101580.13;6106927;23;20408;-89
2022/07/04 04:11:59;;;;;;;11.63;2.50;;;;;;;19.79;nan;101561.38;6156205;23;20409;-90
2022/07/04 04:14:36;;;;;;;11.60;3.43;;;;;;;19.89;nan;101572.72;6107607;23;20389;-88
2022/07/04 04:17:05;;;;;;;19.30;3.03;;;;;;;19.86;nan;101570.41;6155886;23;20427;-88
2022/07/04 04:19:33;;;;;;;9.20;2.70;;;;;;;19.85;nan;101579.81;6107767;23;20385;-88
2022/07/04 04:22:01;;;;;;;14.33;2.80;;;;;;;19.85;nan;101579.81;6107181;23;20416;-89
2022/07/04 04:24:38;;;;;;;9.20;2.53;;;;;;;19.82;nan;101580.28;6108538;23;20464;-90
2022/07/04 04:27:05;;;;;;;7.93;2.20;;;;;;;19.78;nan;101568.00;6155841;23;20408;-90
2022/07/04 04:29:36;;;;;;;15.67;2.90;;;;;;;19.86;nan;101586.22;6108049;23;20468;-90
2022/07/04 04:32:05;;;;;;;14.53;3.17;;;;;;;19.85;nan;101579.81;6155968;23;20392;-90
2022/07/04 04:34:39;;;;;;;13.13;2.50;;;;;;;19.82;nan;101585.84;6107701;23;20442;-90
2022/07/04 04:37:16;;;;;;;16.33;2.97;;;;;;;19.80;nan;101587.19;6108406;23;20496;-90
2022/07/04 04:39:49;;;;;;;17.83;2.90;;;;;;;19.82;nan;101588.59;6107612;23;20860;-90
2022/07/04 04:42:17;;;;;;;14.13;2.50;;;;;;;19.75;nan;101579.53;6157265;23;20540;-90
2022/07/04 04:44:44;;;;;;;11.73;2.77;;;;;;;19.77;nan;101574.63;6109142;23;20844;-89
2022/07/04 04:47:18;;;;;;;12.50;2.83;;;;;;;19.80;nan;101584.41;6085314;23;20904;-91
2022/07/04 04:49:54;;;;;;;8.13;2.27;;;;;;;19.85;nan;101590.91;6109687;23;20385;-90
2022/07/04 04:52:26;;;;;;;14.77;3.20;;;;;;;19.81;nan;101578.63;6134908;23;20708;-91
2022/07/04 04:54:56;;;;;;;16.33;3.60;;;;;;;19.81;nan;101578.63;6109911;23;20404;-91
2022/07/04 04:57:24;;;;;;;13.60;2.40;;;;;;;19.90;nan;101581.91;6108802;23;20412;-91
2022/07/04 04:59:53;;;;;;;9.77;2.33;;;;;;;19.85;nan;101565.94;6086362;23;20469;-91
2022/07/04 05:02:26;;;;;;;11.63;3.00;;;;;;;19.81;nan;101575.00;6110632;23;20421;-90
2022/07/04 05:05:02;;;;;;;10.13;2.07;;;;;;;19.79;nan;101574.38;6110000;23;20484;-90
2022/07/04 05:07:30;;;;;;;11.83;2.30;;;;;;;19.79;nan;101578.00;6110055;23;20512;-91
2022/07/04 05:09:59;;;;;;;10.47;2.00;;;;;;;19.75;nan;101568.44;6103780;23;20433;-91
2022/07/04 05:12:33;;;;;;;7.03;1.77;;;;;;;19.81;nan;101589.72;6080495;23;20417;-91
2022/07/04 05:15:09;;;;;;;11.00;2.33;;;;;;;19.80;nan;101588.03;6104521;23;20385;-91
2022/07/04 05:17:43;;;;;;;12.97;2.40;;;;;;;19.83;nan;101592.22;6129067;23;20453;-90
2022/07/04 05:20:11;;;;;;;11.27;2.70;;;;;;;19.79;nan;101583.56;6128317;23;20398;-90
2022/07/04 05:22:40;;;;;;;13.47;2.50;;;;;;;19.82;nan;101580.28;6104662;23;20473;-90
2022/07/04 05:25:25;;;;;;;9.67;2.60;;;;;;;19.82;nan;101580.28;6103946;23;20715;-94
2022/07/04 05:27:55;;;;;;;10.43;2.33;;;;;;;19.79;nan;101575.22;6128231;23;20782;-93
2022/07/04 05:31:01;;;;;;;11.87;2.97;;;;;;;19.83;nan;101587.53;6080696;23;20409;-94
2022/07/04 05:34:00;;;;;;;8.57;2.87;;;;;;;19.84;nan;101578.13;6152508;23;20456;-93
2022/07/04 05:36:47;;;;;;;12.83;2.60;;;;;;;19.79;nan;101583.56;6103234;23;20474;-93
2022/07/04 05:39:37;;;;;;;12.73;2.70;;;;;;;19.78;nan;101581.00;6104318;23;20413;-93
2022/07/04 05:42:18;;;;;;;8.10;2.30;;;;;;;19.67;nan;101560.44;6127668;23;20409;-93
2022/07/04 05:48:26;;;;;;;11.23;3.10;;;;;;;19.81;nan;101586.94;6129520;23;20941;-93
2022/07/04 05:50:54;;;;;;;11.03;2.00;;;;;;;19.80;nan;101567.75;6127520;23;20416;-94
2022/07/04 05:53:22;;;;;;;14.80;2.60;;;;;;;19.73;nan;101553.13;6104155;23;20481;-94
2022/07/04 05:55:56;;;;;;;12.50;3.00;;;;;;;19.80;nan;101576.94;6103365;23;20433;-93
2022/07/04 05:58:38;;;;;;;8.20;2.40;;;;;;;19.90;nan;101579.13;6103656;23;20423;-93
2022/07/04 06:01:17;;;;;;;16.87;2.93;;;;;;;19.92;nan;101577.81;6127819;23;20420;-93
2022/07/04 06:03:53;;;;;;;15.67;3.17;;;;;;;19.93;nan;101582.28;6128174;23;20420;-92
2022/07/04 06:09:57;;;;;;;13.80;3.37;;;;;;;20.05;nan;101578.69;6130064;23;20522;-92
2022/07/04 06:12:52;;;;;;;11.23;2.47;;;;;;;20.02;nan;101583.63;6104037;23;20506;-93
2022/07/04 06:18:40;;;;;;;14.97;2.70;;;;;;;19.99;nan;101578.56;6128482;23;20465;-93
2022/07/04 06:21:24;;;;;;;15.43;2.80;;;;;;;20.05;nan;101589.78;6103065;23;20472;-92
2022/07/04 06:23:54;;;;;;;17.30;3.97;;;;;;;20.02;nan;101580.00;6127588;23;20436;-91
2022/07/04 06:26:36;;;;;;;15.33;3.80;;;;;;;20.05;nan;101582.31;6056978;23;20449;-92
2022/07/04 06:29:36;;;;;;;16.20;2.93;;;;;;;20.14;nan;101582.84;6082765;23;20869;-92
2022/07/04 06:32:47;;;;;;;11.17;2.77;;;;;;;20.19;nan;101581.06;6074921;23;20470;-92
2022/07/04 06:38:16;;;;;;;12.30;2.83;;;;;;;20.32;nan;101586.38;6087735;23;20421;-93
2022/07/04 06:40:46;;;;;;;12.93;2.63;;;;;;;20.30;nan;101566.34;6056062;23;20413;-92
2022/07/04 06:43:24;;;;;;;15.13;2.10;;;;;;;20.37;nan;101574.59;6055773;23;20904;-92
2022/07/04 06:45:52;;;;;;;15.40;3.50;;;;;;;20.26;nan;101553.16;6103409;23;20469;-92
2022/07/04 06:48:29;;;;;;;11.20;2.97;;;;;;;20.46;nan;101577.88;6101484;23;20881;-92
2022/07/04 06:51:00;;;;;;;8.57;2.70;;;;;;;20.42;nan;101568.31;6127002;23;20467;-92
2022/07/04 06:53:54;;;;;;;13.17;2.87;;;;;;;20.59;nan;101589.59;6080084;23;20717;-93
2022/07/04 06:56:35;;;;;;;14.57;3.10;;;;;;;20.62;nan;101578.00;6127588;23;20948;-92
2022/07/04 06:59:15;;;;;;;18.27;4.03;;;;;;;20.66;nan;101582.00;6079276;23;20417;-92
2022/07/04 07:02:08;;;;;;;7.90;2.90;;;;;;;20.86;nan;101586.34;6079538;23;20413;-92
2022/07/04 07:04:47;;;;;;;13.93;3.03;;;;;;;20.82;nan;101591.56;6127285;23;20395;-92
2022/07/04 07:07:53;;;;;;;8.73;2.43;;;;;;;20.84;nan;101592.16;6102878;23;20477;-93
2022/07/04 07:10:21;;;;;;;10.90;2.77;;;;;;;20.82;nan;101601.81;6132073;23;20488;-92
2022/07/04 07:13:21;;;;;;;12.00;3.30;;;;;;;20.91;nan;101605.94;6108752;23;20416;-92
2022/07/04 07:19:33;;;;;;;12.63;2.60;;;;;;;20.89;nan;101605.34;6157244;23;20380;-91
2022/07/04 07:22:06;;;;;;;13.27;3.80;;;;;;;20.99;nan;101608.34;6108440;23;20480;-91
2022/07/04 07:24:35;;;;;;;9.30;3.10;;;;;;;21.00;nan;101599.75;6108362;23;20409;-91
2022/07/04 07:27:52;;;;;;;15.47;3.40;;;;;;;21.08;nan;101595.78;6108659;23;20386;-91
2022/07/04 07:29:55;;;;;;;10.17;3.00;;;;;;;21.22;nan;101597.25;6105271;23;20416;-91
2022/07/04 07:32:29;;;;;;;12.33;2.47;;;;;;;21.26;nan;101601.25;6136064;23;20417;-91
2022/07/04 07:35:05;;;;;;;14.83;2.77;;;;;;;21.26;nan;101609.59;6161922;23;20420;-91
2022/07/04 07:37:34;;;;;;;11.10;2.27;;;;;;;21.20;nan;101590.22;6110627;23;20448;-92
2022/07/04 07:40:06;;;;;;;20.17;3.77;;;;;;;21.18;nan;101598.78;6113493;23;20414;-92
2022/07/04 07:42:46;;;;;;;14.40;3.13;;;;;;;21.24;nan;101608.97;6133743;23;20465;-91
2022/07/04 07:45:31;;;;;;;18.77;3.27;;;;;;;21.28;nan;101606.56;6157369;23;20437;-90
2022/07/04 07:48:34;;;;;;;18.73;2.80;;;;;;;21.28;nan;101617.69;6140665;23;20396;-91
2022/07/04 07:51:09;;;;;;;12.93;2.90;;;;;;;21.17;nan;101605.44;6137606;23;20408;-90
2022/07/04 07:53:38;;;;;;;15.27;2.03;;;;;;;21.31;nan;101620.84;6110994;23;20465;-90
2022/07/04 07:56:27;;;;;;;12.30;2.67;;;;;;;21.26;nan;101620.72;6118322;23;20753;-91
2022/07/04 07:59:27;;;;;;;12.30;2.97;;;;;;;21.30;nan;101621.91;6110257;23;20466;-92
2022/07/04 08:01:59;;;;;;;10.90;2.73;;;;;;;21.15;nan;101626.25;6136839;23;20432;-89
2022/07/04 08:04:34;;;;;;;29.37;2.70;;;;;;;21.18;nan;101623.81;6162842;23;20416;-89
2022/07/04 08:07:03;;;;;;;14.80;2.90;;;;;;;21.28;nan;101612.13;6117334;23;20414;-91
2022/07/04 09:19:40;;;;;;;;;;;;;;;;;;;;;
2022/07/04 20:32:44;;;;;;;14.90;3.20;;;;;;;20.82;nan;101373.97;6101782;23;20429;-92
2022/07/04 21:09:15;;;;;;;18.10;3.70;;;;;;;20.53;nan;101437.81;6124274;23;20452;-93
2022/07/04 21:11:52;;;;;;;20.53;3.53;;;;;;;20.48;nan;101439.63;6113608;23;20421;-92
2022/07/04 21:14:20;;;;;;;15.63;3.80;;;;;;;20.56;nan;101465.09;6166052;23;20404;-90
2022/07/04 21:16:49;;;;;;;10.80;2.90;;;;;;;20.48;nan;101459.91;6116180;23;20494;-94
2022/07/04 21:20:22;;;;;;;13.40;3.20;;;;;;;20.34;nan;101450.09;5977928;23;20438;-91
2022/07/04 21:23:13;;;;;;;10.10;2.90;;;;;;;20.34;nan;101455.66;6000427;23;20417;-92
2022/07/04 21:34:22;;;;;;;13.07;2.67;;;;;;;20.50;nan;101482.72;5901211;24;20388;-90
2022/07/04 21:37:02;;;;;;;13.90;3.50;;;;;;;20.52;nan;101490.81;5859157;24;20449;-92
2022/07/04 21:39:33;;;;;;;13.50;2.80;;;;;;;20.43;nan;101473.66;5860862;24;20431;-92
2022/07/04 21:42:03;;;;;;;9.73;2.87;;;;;;;20.52;nan;101502.78;5864110;24;20420;-91
2022/07/04 21:44:34;;;;;;;10.37;3.20;;;;;;;20.46;nan;101494.53;5861479;24;20417;-91
2022/07/04 21:47:14;;;;;;;12.00;3.57;;;;;;;20.41;nan;101484.16;5884031;24;20429;-92
2022/07/04 21:50:08;;;;;;;11.37;3.53;;;;;;;20.48;nan;101501.56;5861273;24;20416;-92
2022/07/04 21:53:17;;;;;;;7.33;2.77;;;;;;;20.49;nan;101514.34;5883806;24;20424;-92
2022/07/04 21:56:00;;;;;;;9.10;2.80;;;;;;;20.40;nan;101498.31;5963084;23;20459;-91
2022/07/04 21:58:31;;;;;;;7.73;2.73;;;;;;;20.41;nan;101494.41;5996212;23;20793;-92
2022/07/04 22:01:05;;;;;;;9.90;3.20;;;;;;;20.43;nan;101503.34;6018173;23;20915;-91
2022/07/04 22:03:34;;;;;;;11.80;2.50;;;;;;;20.32;nan;101499.47;6025790;23;20412;-91
2022/07/04 22:06:16;;;;;;;11.70;2.80;;;;;;;20.34;nan;101505.63;6001965;23;20412;-92
2022/07/04 22:08:47;;;;;;;9.13;2.57;;;;;;;20.28;nan;101495.47;5998385;23;20515;-91
2022/07/04 22:11:22;;;;;;;12.43;3.10;;;;;;;20.32;nan;101497.53;6088834;23;20409;-90
2022/07/04 22:13:58;;;;;;;9.30;2.80;;;;;;;20.35;nan;101510.09;6110500;23;20463;-91
2022/07/04 22:16:33;;;;;;;9.83;2.43;;;;;;;20.30;nan;101488.59;6157918;23;20393;-91
2022/07/04 22:19:10;;;;;;;12.27;2.63;;;;;;;20.21;nan;101472.53;6111212;23;20471;-91
2022/07/04 22:21:41;;;;;;;16.73;2.97;;;;;;;20.19;nan;101492.22;6109973;23;20413;-92
2022/07/04 22:24:13;;;;;;;9.13;3.10;;;;;;;20.30;nan;101493.31;6109080;23;20413;-92
2022/07/04 22:26:43;;;;;;;6.57;3.33;;;;;;;20.30;nan;101498.84;6133350;23;20400;-91
2022/07/04 22:29:11;;;;;;;10.67;2.87;;;;;;;20.22;nan;101485.31;6112660;23;20423;-92
2022/07/04 22:31:41;;;;;;;6.67;2.73;;;;;;;20.31;nan;101483.88;6108789;23;20412;-92
2022/07/04 22:34:15;;;;;;;13.67;3.30;;;;;;;20.34;nan;101494.53;6109340;23;20409;-92
2022/07/04 22:36:50;;;;;;;9.67;3.13;;;;;;;20.28;nan;101487.13;6109335;23;20472;-92
2022/07/04 22:39:29;;;;;;;13.67;3.50;;;;;;;20.24;nan;101472.88;6108466;23;20415;-91
2022/07/04 22:42:15;;;;;;;13.10;4.00;;;;;;;20.21;nan;101472.53;6109001;23;20480;-92
2022/07/04 22:44:47;;;;;;;8.13;3.20;;;;;;;20.22;nan;101468.66;6108596;23;20408;-92
2022/07/04 22:47:15;;;;;;;13.17;3.50;;;;;;;20.25;nan;101470.97;6108801;23;20417;-91
2022/07/04 22:49:50;;;;;;;13.30;4.07;;;;;;;20.31;nan;101470.00;6108684;23;20412;-92
2022/07/04 22:52:20;;;;;;;15.43;3.80;;;;;;;20.21;nan;101470.59;6109354;23;20416;-91
2022/07/04 22:54:55;;;;;;;11.03;3.27;;;;;;;20.21;nan;101466.97;6108768;23;20409;-92
2022/07/04 22:57:30;;;;;;;15.20;3.50;;;;;;;20.25;nan;101495.94;6109175;23;20986;-92
2022/07/04 23:00:16;;;;;;;11.20;3.80;;;;;;;20.29;nan;101497.16;6108966;23;20409;-91
2022/07/04 23:02:47;;;;;;;13.90;3.40;;;;;;;20.22;nan;101490.88;6132087;23;20908;-92
2022/07/04 23:05:16;;;;;;;13.93;3.83;;;;;;;20.18;nan;101478.56;6109021;23;20409;-92
2022/07/04 23:07:45;;;;;;;11.60;3.67;;;;;;;20.28;nan;101489.91;6108154;23;20424;-92
2022/07/04 23:11:10;;;;;;;7.37;3.27;;;;;;;20.30;nan;101494.16;6108367;23;20815;-92
2022/07/04 23:13:39;;;;;;;17.77;3.90;;;;;;;20.24;nan;101483.16;6156728;23;20476;-91
2022/07/04 23:16:23;;;;;;;14.87;3.77;;;;;;;20.22;nan;101477.84;6085326;23;20801;-91
2022/07/04 23:19:07;;;;;;;15.67;3.80;;;;;;;20.18;nan;101470.25;6108105;23;20441;-92
2022/07/04 23:21:34;;;;;;;17.80;4.20;;;;;;;20.17;nan;101468.56;6107557;23;20416;-90
2022/07/04 23:24:12;;;;;;;16.63;3.87;;;;;;;20.09;nan;101455.00;6110133;23;20453;-91
2022/07/04 23:26:59;;;;;;;17.17;3.97;;;;;;;20.26;nan;101479.06;6108364;23;20470;-92
2022/07/04 23:29:46;;;;;;;11.60;4.20;;;;;;;20.22;nan;101474.22;6131749;23;20416;-93
2022/07/04 23:32:26;;;;;;;15.43;3.50;;;;;;;20.07;nan;101454.41;6109567;23;20473;-92
2022/07/04 23:35:02;;;;;;;10.87;3.83;;;;;;;20.00;nan;101444.28;6108440;23;20412;-92
2022/07/04 23:37:52;;;;;;;16.23;3.77;;;;;;;20.11;nan;101466.72;6108502;23;20946;-92
2022/07/04 23:40:30;;;;;;;15.00;4.40;;;;;;;20.14;nan;101466.25;6132526;23;20389;-91
2022/07/04 23:43:12;;;;;;;16.53;5.57;;;;;;;20.16;nan;101459.38;6132688;23;21019;-92
2022/07/04 23:45:43;;;;;;;17.60;4.33;;;;;;;20.04;nan;101452.09;6108178;23;20478;-92
2022/07/04 23:48:26;;;;;;;24.70;5.10;;;;;;;20.06;nan;101459.09;6132385;23;20421;-92
2022/07/04 23:51:03;;;;;;;13.73;3.60;;;;;;;20.05;nan;101460.19;6156198;23;20532;-93
2022/07/04 23:54:20;;;;;;;12.63;3.97;;;;;;;20.02;nan;101458.75;6107973;23;20412;-93
2022/07/04 23:56:52;;;;;;;11.70;4.40;;;;;;;20.06;nan;101461.88;6155957;23;20419;-92
2022/07/04 23:59:35;;;;;;;10.27;3.60;;;;;;;20.08;nan;101467.19;6156516;23;20549;-92
